PHX weather

Phoenix Sky Harbor International Airport
Phoenix, Arizona, United States

Public forecast

Using degrees Fahrenheit for public forecast. Weather courtesy of forecast.io.

METAR (pilot weather report)

Retrieved 2017/10/19 10:51 UTC (1 hour ago):

KPHX 191051Z 09006KT 10SM BKN160 BKN220 25/06 A2979 RMK AO2 SLP070 T02500056

TAF (pilot weather forecast)

Retrieved 2017/10/19 06:28 UTC (5 hours ago):

TAF KPHX 190526Z 1906/2012 11006KT P6SM FEW120 BKN200 FM192100 26010KT P6SM SCT250 FM200400 23004KT P6SM SCT250 FM200800 11008KT P6SM SCT250